createdAt,value
2023-03-27T00:00:35.592Z,6.29
2023-03-27T00:01:35.511Z,6.29
2023-03-27T00:02:35.680Z,6.21
2023-03-27T00:03:35.520Z,6.16
2023-03-27T00:04:35.408Z,6.19
2023-03-27T00:05:35.367Z,6.22
2023-03-27T00:06:35.359Z,6.13
2023-03-27T00:07:35.316Z,6.14
2023-03-27T00:08:35.296Z,6.21
2023-03-27T00:09:35.355Z,6.21
2023-03-27T00:10:35.262Z,6.16
2023-03-27T00:11:35.212Z,6.14
2023-03-27T00:12:35.190Z,6.07
2023-03-27T00:13:35.176Z,6.16
2023-03-27T00:14:35.149Z,6.16
2023-03-27T00:15:35.117Z,6.13
2023-03-27T00:16:35.108Z,6.07
2023-03-27T00:17:35.107Z,6.11
2023-03-27T00:18:35.052Z,6.06
2023-03-27T00:19:35.037Z,6.03
2023-03-27T00:20:35.035Z,6.09
2023-03-27T00:21:34.959Z,6.10
2023-03-27T00:22:34.936Z,6.06
2023-03-27T00:23:34.947Z,6.09
2023-03-27T00:24:34.886Z,6.06
2023-03-27T00:25:34.873Z,6.04
2023-03-27T00:26:34.838Z,6.00
2023-03-27T00:27:34.833Z,6.11
2023-03-27T00:28:34.781Z,6.06
2023-03-27T00:29:34.753Z,5.98
2023-03-27T00:30:34.746Z,6.03
2023-03-27T00:31:34.702Z,5.95
2023-03-27T00:32:34.704Z,6.09
2023-03-27T00:33:34.690Z,6.00
2023-03-27T00:34:34.634Z,5.95
2023-03-27T00:35:34.633Z,5.88
2023-03-27T00:36:34.582Z,5.83
2023-03-27T00:37:34.557Z,5.81
2023-03-27T00:38:34.534Z,5.77
2023-03-27T00:39:34.509Z,5.83
2023-03-27T00:40:34.498Z,5.77
2023-03-27T00:41:34.452Z,5.74
2023-03-27T00:42:34.429Z,5.71
2023-03-27T00:43:34.446Z,5.68
2023-03-27T00:44:34.376Z,5.64
2023-03-27T00:45:34.347Z,5.68
2023-03-27T00:46:34.371Z,5.63
2023-03-27T00:47:34.308Z,5.53
2023-03-27T00:48:34.278Z,5.53
2023-03-27T00:49:34.300Z,5.57
2023-03-27T00:50:34.220Z,5.53
2023-03-27T00:51:34.200Z,5.57
2023-03-27T00:52:34.171Z,5.55
2023-03-27T00:53:34.185Z,5.41
2023-03-27T00:54:34.122Z,5.49
2023-03-27T00:55:34.117Z,5.40
2023-03-27T00:56:34.150Z,5.40
2023-03-27T00:57:34.053Z,5.31
2023-03-27T00:58:34.020Z,5.32
2023-03-27T00:59:33.990Z,5.30
2023-03-27T01:00:33.965Z,5.31
2023-03-27T01:01:33.999Z,5.17
2023-03-27T01:02:34.020Z,5.22
2023-03-27T01:03:34.063Z,5.17
2023-03-27T01:04:33.861Z,5.16
2023-03-27T01:05:33.837Z,5.12
2023-03-27T01:06:33.841Z,5.12
2023-03-27T01:07:33.779Z,5.10
2023-03-27T01:08:33.794Z,5.14
2023-03-27T01:09:33.754Z,5.04
2023-03-27T01:10:33.708Z,5.09
2023-03-27T01:11:33.683Z,5.10
2023-03-27T01:12:33.655Z,5.07
2023-03-27T01:13:33.632Z,5.09
2023-03-27T01:14:33.620Z,5.07
2023-03-27T01:15:33.597Z,5.16
2023-03-27T01:16:33.554Z,5.09
2023-03-27T01:17:33.562Z,5.05
2023-03-27T01:18:33.510Z,5.07
2023-03-27T01:19:33.468Z,5.05
2023-03-27T01:20:33.515Z,5.02
2023-03-27T01:21:33.423Z,5.05
2023-03-27T01:22:33.411Z,4.96
2023-03-27T01:23:36.307Z,5.04
2023-03-27T01:24:33.363Z,5.04
2023-03-27T01:25:33.326Z,5.02
2023-03-27T01:26:35.619Z,5.10
2023-03-27T01:27:33.278Z,5.10
2023-03-27T01:28:33.241Z,5.10
2023-03-27T01:29:33.224Z,5.20
2023-03-27T01:30:33.226Z,5.07
2023-03-27T01:31:33.213Z,5.14
2023-03-27T01:32:33.224Z,5.13
2023-03-27T01:33:33.107Z,5.05
2023-03-27T01:34:33.085Z,5.09
2023-03-27T01:35:33.130Z,5.12
2023-03-27T01:36:33.036Z,5.14
2023-03-27T01:37:33.026Z,5.10
2023-03-27T01:38:32.982Z,5.09
2023-03-27T01:39:32.960Z,5.10
2023-03-27T01:40:32.930Z,5.13
2023-03-27T01:41:32.910Z,5.13
2023-03-27T01:42:32.901Z,5.16
2023-03-27T01:43:32.857Z,5.16
2023-03-27T01:44:43.369Z,5.09
2023-03-27T01:45:32.805Z,5.14
2023-03-27T01:46:32.802Z,5.14
2023-03-27T01:47:32.883Z,5.16
2023-03-27T01:48:32.741Z,5.25
2023-03-27T01:49:32.707Z,5.22
2023-03-27T01:50:32.672Z,5.14
2023-03-27T01:51:32.664Z,5.13
2023-03-27T01:52:32.632Z,5.16
2023-03-27T01:53:32.669Z,5.28
2023-03-27T01:54:32.580Z,5.27
2023-03-27T01:55:32.547Z,5.09
2023-03-27T01:56:32.757Z,5.12
2023-03-27T01:57:32.496Z,5.01
2023-03-27T01:58:32.470Z,4.95
2023-03-27T01:59:32.440Z,4.96
2023-03-27T02:01:03.863Z,4.95
2023-03-27T02:01:32.451Z,4.88
2023-03-27T02:02:32.498Z,4.86
2023-03-27T02:03:32.336Z,4.79
2023-03-27T02:04:32.340Z,4.73
2023-03-27T02:05:32.286Z,4.64
2023-03-27T02:06:32.261Z,4.70
2023-03-27T02:07:32.229Z,4.65
2023-03-27T02:08:32.230Z,4.59
2023-03-27T02:09:32.191Z,4.65
2023-03-27T02:10:32.159Z,4.50
2023-03-27T02:11:32.144Z,4.43
2023-03-27T02:12:32.119Z,4.40
2023-03-27T02:13:32.078Z,4.28
2023-03-27T02:14:32.055Z,4.10
2023-03-27T02:15:32.028Z,4.12
2023-03-27T02:16:32.027Z,4.08
2023-03-27T02:17:32.050Z,4.01
2023-03-27T02:18:31.978Z,3.98
2023-03-27T02:19:31.920Z,4.03
2023-03-27T02:20:31.902Z,3.98
2023-03-27T02:21:31.881Z,4.03
2023-03-27T02:22:38.334Z,3.94
2023-03-27T02:23:31.820Z,3.97
2023-03-27T02:24:31.816Z,3.98
2023-03-27T02:25:31.767Z,4.00
2023-03-27T02:26:31.750Z,4.04
2023-03-27T02:27:31.740Z,4.04
2023-03-27T02:28:31.700Z,4.07
2023-03-27T02:29:31.671Z,4.01
2023-03-27T02:30:31.642Z,4.04
2023-03-27T02:31:34.586Z,3.94
2023-03-27T02:32:31.735Z,3.89
2023-03-27T02:33:31.567Z,3.89
2023-03-27T02:34:31.550Z,3.94
2023-03-27T02:35:31.541Z,3.88
2023-03-27T02:36:31.496Z,3.86
2023-03-27T02:37:33.043Z,3.83
2023-03-27T02:38:31.439Z,3.85
2023-03-27T02:39:31.411Z,3.88
2023-03-27T02:40:31.384Z,3.89
2023-03-27T02:41:31.359Z,3.89
2023-03-27T02:42:31.337Z,3.90
2023-03-27T02:43:31.319Z,3.90
2023-03-27T02:44:31.300Z,3.88
2023-03-27T02:45:31.277Z,3.89
2023-03-27T02:46:31.238Z,3.96
2023-03-27T02:47:31.236Z,3.90
2023-03-27T02:48:31.180Z,3.92
2023-03-27T02:49:31.146Z,3.97
2023-03-27T02:50:31.125Z,3.96
2023-03-27T02:51:31.098Z,4.00
2023-03-27T02:52:31.081Z,4.18
2023-03-27T02:53:31.048Z,4.08
2023-03-27T02:54:31.048Z,4.04
2023-03-27T02:55:30.998Z,4.10
2023-03-27T02:56:30.968Z,4.18
2023-03-27T02:57:30.947Z,4.10
2023-03-27T02:58:30.940Z,4.10
2023-03-27T02:59:30.903Z,4.16
2023-03-27T03:00:30.902Z,4.08
2023-03-27T03:01:30.903Z,4.10
2023-03-27T03:02:31.122Z,4.08
2023-03-27T03:03:30.813Z,4.15
2023-03-27T03:04:30.768Z,4.08
2023-03-27T03:05:30.745Z,4.12
2023-03-27T03:06:30.724Z,4.08
2023-03-27T03:07:30.706Z,4.15
2023-03-27T03:08:30.806Z,4.14
2023-03-27T03:09:30.634Z,4.03
2023-03-27T03:10:30.599Z,4.03
2023-03-27T03:11:30.597Z,3.90
2023-03-27T03:12:30.551Z,3.89
2023-03-27T03:13:30.541Z,3.97
2023-03-27T03:14:30.500Z,3.86
2023-03-27T03:15:30.478Z,3.75
2023-03-27T03:16:30.494Z,3.80
2023-03-27T03:17:30.433Z,3.78
2023-03-27T03:18:30.398Z,3.71
2023-03-27T03:19:30.373Z,3.71
2023-03-27T03:20:30.349Z,3.80
2023-03-27T03:21:30.329Z,3.71
2023-03-27T03:22:30.295Z,3.62
2023-03-27T03:23:30.265Z,3.53
2023-03-27T03:24:30.247Z,3.44
2023-03-27T03:25:30.221Z,3.40
2023-03-27T03:26:30.193Z,3.33
2023-03-27T03:27:30.172Z,3.42
2023-03-27T03:28:30.136Z,3.18
2023-03-27T03:29:30.151Z,3.27
2023-03-27T03:30:30.125Z,3.24
2023-03-27T03:31:30.115Z,3.21
2023-03-27T03:32:30.056Z,3.25
2023-03-27T03:33:30.008Z,3.24
2023-03-27T03:34:29.980Z,3.27
2023-03-27T03:35:30.025Z,3.24
2023-03-27T03:36:29.993Z,3.25
2023-03-27T03:37:29.916Z,3.21
2023-03-27T03:38:29.882Z,3.25
2023-03-27T03:39:29.877Z,3.24
2023-03-27T03:40:29.843Z,3.25
2023-03-27T03:41:29.817Z,3.20
2023-03-27T03:42:29.765Z,3.25
2023-03-27T03:43:29.767Z,3.16
2023-03-27T03:44:29.724Z,3.13
2023-03-27T03:45:29.763Z,3.06
2023-03-27T03:46:29.732Z,3.18
2023-03-27T03:47:29.659Z,3.20
2023-03-27T03:48:29.611Z,3.13
2023-03-27T03:49:29.591Z,3.21
2023-03-27T03:50:29.557Z,3.21
2023-03-27T03:51:29.538Z,3.10
2023-03-27T03:52:29.505Z,3.05
2023-03-27T03:53:29.483Z,3.05
2023-03-27T03:54:29.460Z,3.07
2023-03-27T03:55:29.435Z,3.07
2023-03-27T03:56:29.396Z,3.07
2023-03-27T03:57:29.373Z,3.07
2023-03-27T03:58:34.373Z,3.07
2023-03-27T03:59:29.317Z,2.91
2023-03-27T04:00:29.290Z,2.84
2023-03-27T04:01:29.349Z,2.89
2023-03-27T04:02:29.435Z,2.85
2023-03-27T04:03:29.242Z,2.71
2023-03-27T04:04:29.197Z,2.82
2023-03-27T04:05:29.158Z,2.79
2023-03-27T04:06:29.138Z,2.85
2023-03-27T04:07:29.111Z,2.85
2023-03-27T04:08:29.129Z,2.88
2023-03-27T04:09:29.050Z,2.76
2023-03-27T04:10:29.021Z,2.77
2023-03-27T04:11:29.004Z,2.63
2023-03-27T04:12:28.975Z,2.56
2023-03-27T04:13:28.945Z,2.48
2023-03-27T04:14:28.923Z,2.44
2023-03-27T04:15:28.910Z,2.37
2023-03-27T04:16:28.889Z,2.27
2023-03-27T04:17:28.964Z,2.22
2023-03-27T04:18:28.921Z,2.13
2023-03-27T04:19:28.781Z,2.16
2023-03-27T04:20:28.765Z,2.01
2023-03-27T04:21:28.761Z,2.04
2023-03-27T04:22:28.997Z,2.06
2023-03-27T04:23:28.724Z,1.99
2023-03-27T04:24:28.701Z,1.89
2023-03-27T04:25:28.688Z,1.90
2023-03-27T04:26:28.664Z,1.90
2023-03-27T04:27:28.577Z,1.90
2023-03-27T04:28:28.555Z,1.82
2023-03-27T04:29:28.529Z,1.80
2023-03-27T04:30:28.489Z,1.73
2023-03-27T04:31:28.532Z,1.58
2023-03-27T04:32:28.472Z,1.61
2023-03-27T04:33:30.647Z,1.54
2023-03-27T04:34:28.385Z,1.52
2023-03-27T04:35:28.385Z,1.54
2023-03-27T04:36:29.548Z,1.51
2023-03-27T04:37:28.315Z,1.52
2023-03-27T04:38:28.295Z,1.39
2023-03-27T04:39:28.267Z,1.40
2023-03-27T04:40:28.237Z,1.36
2023-03-27T04:41:28.213Z,1.39
2023-03-27T04:42:28.234Z,1.42
2023-03-27T04:43:28.174Z,1.55
2023-03-27T04:44:28.121Z,1.50
2023-03-27T04:45:28.152Z,1.50
2023-03-27T04:46:28.116Z,1.51
2023-03-27T04:47:28.059Z,1.50
2023-03-27T04:48:28.020Z,1.40
2023-03-27T04:49:28.003Z,1.46
2023-03-27T04:50:27.959Z,1.43
2023-03-27T04:51:27.943Z,1.32
2023-03-27T04:52:27.940Z,1.28
2023-03-27T04:53:27.887Z,1.29
2023-03-27T04:54:27.858Z,1.32
2023-03-27T04:55:27.834Z,1.22
2023-03-27T04:56:27.824Z,1.29
2023-03-27T04:57:27.779Z,1.29
2023-03-27T04:58:27.756Z,1.34
2023-03-27T04:59:27.765Z,1.33
2023-03-27T05:00:27.699Z,1.21
2023-03-27T05:01:27.696Z,1.24
2023-03-27T05:02:27.687Z,1.33
2023-03-27T05:03:27.685Z,1.32
2023-03-27T05:04:27.591Z,1.42
2023-03-27T05:05:27.567Z,1.40
2023-03-27T05:06:27.534Z,1.36
2023-03-27T05:07:27.512Z,1.37
2023-03-27T05:08:27.480Z,1.32
2023-03-27T05:09:27.514Z,1.28
2023-03-27T05:10:27.426Z,1.32
2023-03-27T05:11:27.406Z,1.29
2023-03-27T05:12:27.370Z,1.33
2023-03-27T05:13:27.349Z,1.28
2023-03-27T05:14:27.324Z,1.26
2023-03-27T05:15:27.293Z,1.25
2023-03-27T05:16:27.315Z,1.33
2023-03-27T05:17:27.267Z,1.26
2023-03-27T05:18:27.212Z,1.26
2023-03-27T05:19:27.212Z,1.28
2023-03-27T05:20:27.182Z,1.18
2023-03-27T05:21:27.160Z,1.19
2023-03-27T05:22:27.113Z,1.15
2023-03-27T05:23:27.096Z,1.07
2023-03-27T05:24:27.054Z,1.01
2023-03-27T05:25:27.030Z,1.07
2023-03-27T05:26:27.008Z,1.01
2023-03-27T05:27:26.973Z,1.07
2023-03-27T05:28:26.946Z,1.16
2023-03-27T05:29:26.941Z,1.15
2023-03-27T05:30:27.104Z,1.15
2023-03-27T05:31:26.898Z,1.12
2023-03-27T05:32:26.871Z,1.16
2023-03-27T05:33:26.816Z,1.10
2023-03-27T05:34:26.780Z,1.14
2023-03-27T05:35:26.786Z,1.14
2023-03-27T05:36:26.727Z,1.07
2023-03-27T05:37:27.493Z,1.10
2023-03-27T05:38:26.672Z,1.04
2023-03-27T05:39:26.656Z,1.03
2023-03-27T05:40:26.654Z,1.04
2023-03-27T05:41:26.598Z,1.06
2023-03-27T05:42:26.578Z,1.07
2023-03-27T05:43:26.550Z,1.08
2023-03-27T05:44:26.560Z,1.12
2023-03-27T05:45:26.492Z,1.12
2023-03-27T05:46:26.488Z,1.08
2023-03-27T05:47:26.489Z,1.04
2023-03-27T05:48:26.431Z,1.04
2023-03-27T05:49:26.406Z,1.10
2023-03-27T05:50:26.351Z,1.04
2023-03-27T05:51:26.321Z,0.98
2023-03-27T05:52:28.305Z,1.03
2023-03-27T05:53:28.083Z,1.08
2023-03-27T05:54:26.243Z,1.12
2023-03-27T05:55:27.757Z,1.08
2023-03-27T05:56:26.194Z,1.06
2023-03-27T05:57:26.211Z,1.07
2023-03-27T05:58:26.131Z,1.04
2023-03-27T05:59:26.119Z,1.00
2023-03-27T06:00:26.080Z,0.96
2023-03-27T06:01:26.064Z,0.96
2023-03-27T06:02:26.085Z,0.90
2023-03-27T06:03:26.169Z,0.90
2023-03-27T06:04:26.024Z,0.97
2023-03-27T06:05:25.952Z,0.94
2023-03-27T06:06:25.923Z,0.97
2023-03-27T06:07:25.967Z,0.98
2023-03-27T06:08:25.869Z,1.03
2023-03-27T06:09:25.859Z,1.07
2023-03-27T06:10:25.817Z,1.18
2023-03-27T06:11:25.794Z,1.32
2023-03-27T06:12:25.758Z,1.36
2023-03-27T06:13:25.733Z,1.46
2023-03-27T06:14:25.708Z,1.69
2023-03-27T06:15:25.725Z,1.76
2023-03-27T06:16:25.691Z,1.80
2023-03-27T06:17:25.676Z,1.89
2023-03-27T06:18:25.600Z,2.02
2023-03-27T06:19:25.586Z,2.34
2023-03-27T06:20:25.555Z,2.81
2023-03-27T06:21:25.552Z,3.05
2023-03-27T06:22:25.487Z,3.44
2023-03-27T06:23:25.478Z,3.82
2023-03-27T06:24:25.438Z,4.16
2023-03-27T06:25:25.424Z,4.36
2023-03-27T06:26:25.385Z,4.42
2023-03-27T06:27:25.360Z,4.43
2023-03-27T06:28:25.345Z,4.43
2023-03-27T06:29:25.317Z,4.51
2023-03-27T06:30:25.285Z,4.40
2023-03-27T06:31:25.322Z,4.32
2023-03-27T06:32:27.198Z,4.22
2023-03-27T06:33:25.198Z,4.18
2023-03-27T06:34:25.174Z,4.25
2023-03-27T06:35:25.167Z,4.26
2023-03-27T06:36:25.225Z,4.51
2023-03-27T06:37:25.110Z,4.47
2023-03-27T06:38:25.070Z,4.65
2023-03-27T06:39:25.056Z,4.73
2023-03-27T06:40:25.016Z,5.12
2023-03-27T06:41:25.009Z,5.20
2023-03-27T06:42:24.963Z,5.46
2023-03-27T06:43:24.952Z,5.50
2023-03-27T06:44:25.125Z,5.50
2023-03-27T06:45:24.936Z,5.41
2023-03-27T06:46:29.727Z,5.23
2023-03-27T06:47:25.094Z,5.09
2023-03-27T06:48:24.865Z,5.01
2023-03-27T06:49:24.797Z,5.10
2023-03-27T06:50:24.762Z,5.19
2023-03-27T06:51:24.737Z,5.30
2023-03-27T06:52:24.797Z,5.52
2023-03-27T06:53:28.015Z,5.57
2023-03-27T06:54:24.660Z,5.63
2023-03-27T06:55:24.634Z,5.86
2023-03-27T06:56:24.612Z,6.03
2023-03-27T06:57:24.584Z,6.21
2023-03-27T06:58:24.546Z,6.16
2023-03-27T06:59:24.528Z,6.14
2023-03-27T07:00:24.511Z,6.03
2023-03-27T07:01:24.528Z,5.91
2023-03-27T07:02:24.463Z,6.06
2023-03-27T07:03:24.436Z,6.29
2023-03-27T07:04:24.392Z,6.30
2023-03-27T07:05:24.431Z,6.33
2023-03-27T07:06:24.345Z,6.35
2023-03-27T07:07:24.360Z,6.32
2023-03-27T07:08:25.383Z,6.16
2023-03-27T07:09:24.284Z,5.89
2023-03-27T07:10:24.245Z,5.73
2023-03-27T07:11:24.225Z,5.77
2023-03-27T07:12:24.193Z,5.74
2023-03-27T07:13:24.167Z,5.63
2023-03-27T07:14:24.140Z,5.63
2023-03-27T07:15:24.135Z,5.50
2023-03-27T07:16:24.201Z,5.35
2023-03-27T07:17:25.346Z,5.41
2023-03-27T07:18:24.117Z,5.27
2023-03-27T07:19:24.013Z,5.22
2023-03-27T07:20:23.985Z,5.35
2023-03-27T07:21:23.971Z,5.19
2023-03-27T07:22:23.950Z,5.16
2023-03-27T07:23:23.900Z,5.45
2023-03-27T07:24:23.880Z,5.81
2023-03-27T07:25:23.848Z,5.82
2023-03-27T07:26:23.836Z,5.82
2023-03-27T07:27:23.821Z,5.88
2023-03-27T07:28:23.786Z,6.10
2023-03-27T07:29:23.758Z,6.16
2023-03-27T07:30:23.725Z,6.14
2023-03-27T07:31:35.041Z,6.28
2023-03-27T07:32:36.235Z,6.21
2023-03-27T07:33:23.701Z,5.98
2023-03-27T07:34:23.689Z,5.83
2023-03-27T07:35:23.650Z,5.60
2023-03-27T07:36:23.578Z,5.57
2023-03-27T07:37:23.593Z,6.00
2023-03-27T07:38:23.523Z,6.33
2023-03-27T07:39:23.521Z,6.16
2023-03-27T07:40:37.043Z,6.36
2023-03-27T07:41:23.446Z,6.41
2023-03-27T07:42:23.423Z,6.61
2023-03-27T07:43:23.396Z,7.08
2023-03-27T07:44:23.377Z,7.13
2023-03-27T07:45:23.377Z,7.08
2023-03-27T07:46:23.333Z,6.95
2023-03-27T07:47:23.307Z,7.08
2023-03-27T07:48:23.355Z,7.32
2023-03-27T07:49:38.741Z,7.44
2023-03-27T07:50:23.267Z,7.24
2023-03-27T07:51:23.216Z,7.08
2023-03-27T07:52:23.190Z,6.97
2023-03-27T07:53:32.979Z,6.80
2023-03-27T07:54:23.125Z,6.65
2023-03-27T07:55:23.094Z,6.51
2023-03-27T07:56:23.078Z,6.43
2023-03-27T07:57:23.121Z,6.43
2023-03-27T07:58:23.174Z,6.36
2023-03-27T07:59:22.996Z,6.18
2023-03-27T08:00:23.067Z,6.04
2023-03-27T08:01:22.952Z,5.89
2023-03-27T08:02:22.928Z,5.86
2023-03-27T08:03:22.976Z,5.85
2023-03-27T08:04:22.942Z,5.89
2023-03-27T08:05:22.867Z,5.82
2023-03-27T08:06:22.826Z,5.81
2023-03-27T08:07:22.804Z,5.83
2023-03-27T08:08:22.809Z,5.77
2023-03-27T08:09:22.743Z,5.83
2023-03-27T08:10:22.735Z,5.73
2023-03-27T08:11:30.290Z,5.85
2023-03-27T08:12:22.672Z,6.71
2023-03-27T08:13:22.650Z,6.59
2023-03-27T08:14:22.621Z,6.35
2023-03-27T08:15:22.626Z,6.04
2023-03-27T08:16:22.586Z,5.86
2023-03-27T08:17:22.609Z,6.19
2023-03-27T08:18:22.646Z,6.11
2023-03-27T08:19:22.491Z,6.14
2023-03-27T08:20:22.550Z,6.06
2023-03-27T08:21:22.449Z,5.98
2023-03-27T08:22:22.441Z,5.92
2023-03-27T08:23:22.387Z,5.92
2023-03-27T08:24:22.383Z,6.09
2023-03-27T08:25:22.578Z,6.07
2023-03-27T08:26:22.327Z,6.54
2023-03-27T08:27:22.289Z,7.47
2023-03-27T08:28:22.267Z,7.42
2023-03-27T08:29:22.249Z,7.09
2023-03-27T08:30:22.299Z,6.90
2023-03-27T08:31:22.277Z,6.83
2023-03-27T08:32:22.213Z,7.50
2023-03-27T08:33:22.162Z,7.81
2023-03-27T08:34:22.116Z,7.67
2023-03-27T08:35:22.114Z,7.47
2023-03-27T08:36:22.071Z,7.20
2023-03-27T08:37:22.045Z,6.87
2023-03-27T08:38:27.038Z,6.72
2023-03-27T08:39:21.992Z,6.44
2023-03-27T08:40:21.988Z,6.56
2023-03-27T08:41:21.961Z,6.35
2023-03-27T08:42:21.922Z,7.24
2023-03-27T08:43:21.892Z,8.12
2023-03-27T08:44:21.865Z,8.57
2023-03-27T08:45:21.848Z,8.45
2023-03-27T08:46:21.888Z,8.25
2023-03-27T08:47:21.816Z,8.48
2023-03-27T08:48:22.101Z,8.42
2023-03-27T08:49:21.759Z,8.68
2023-03-27T08:50:21.719Z,9.20
2023-03-27T08:51:21.696Z,8.90
2023-03-27T08:52:21.675Z,8.48
2023-03-27T08:53:21.642Z,8.33
2023-03-27T08:54:21.660Z,8.25
2023-03-27T08:55:21.595Z,8.58
2023-03-27T08:56:21.577Z,8.91
2023-03-27T08:57:21.663Z,10.03
2023-03-27T08:58:21.567Z,10.22
2023-03-27T08:59:21.503Z,10.03
2023-03-27T09:00:21.529Z,9.83
2023-03-27T09:01:21.487Z,9.78
2023-03-27T09:02:21.502Z,9.23
2023-03-27T09:03:21.516Z,8.99
2023-03-27T09:04:21.394Z,8.94
2023-03-27T09:05:21.361Z,8.81
2023-03-27T09:06:21.336Z,8.17
2023-03-27T09:07:21.316Z,7.71
2023-03-27T09:08:21.305Z,7.40
2023-03-27T09:09:21.259Z,7.08
2023-03-27T09:10:21.278Z,7.07
2023-03-27T09:11:21.842Z,6.97
2023-03-27T09:12:21.201Z,6.90
2023-03-27T09:13:21.184Z,6.79
2023-03-27T09:14:21.153Z,6.58
2023-03-27T09:15:21.117Z,6.61
2023-03-27T09:16:21.150Z,6.61
2023-03-27T09:17:21.068Z,6.63
2023-03-27T09:18:21.052Z,6.73
2023-03-27T09:19:21.038Z,6.84
2023-03-27T09:20:21.008Z,6.90
2023-03-27T09:21:21.021Z,6.97
2023-03-27T09:22:20.949Z,7.02
2023-03-27T09:23:21.286Z,6.98
2023-03-27T09:24:20.904Z,7.04
2023-03-27T09:25:20.878Z,7.15
2023-03-27T09:26:20.855Z,7.23
2023-03-27T09:27:20.842Z,7.24
2023-03-27T09:28:20.879Z,7.41
2023-03-27T09:29:20.847Z,7.44
2023-03-27T09:30:20.754Z,7.35
2023-03-27T09:31:20.772Z,7.29
2023-03-27T09:32:20.707Z,7.35
2023-03-27T09:33:20.673Z,7.34
2023-03-27T09:34:20.666Z,7.41
2023-03-27T09:35:20.714Z,7.79
2023-03-27T09:36:20.609Z,8.45
2023-03-27T09:37:20.576Z,9.35
2023-03-27T09:38:20.558Z,10.37
2023-03-27T09:39:20.533Z,11.49
2023-03-27T09:40:20.560Z,11.97
2023-03-27T09:41:20.499Z,11.50
2023-03-27T09:42:20.462Z,11.19
2023-03-27T09:43:23.132Z,10.04
2023-03-27T09:44:20.470Z,8.88
2023-03-27T09:45:20.385Z,8.62
2023-03-27T09:46:20.501Z,8.28
2023-03-27T09:47:20.379Z,8.00
2023-03-27T09:48:20.360Z,7.74
2023-03-27T09:49:20.298Z,7.84
2023-03-27T09:50:20.283Z,8.18
2023-03-27T09:51:20.314Z,9.04
2023-03-27T09:52:20.236Z,8.91
2023-03-27T09:53:20.206Z,8.71
2023-03-27T09:54:20.182Z,8.45
2023-03-27T09:55:20.160Z,8.45
2023-03-27T09:56:20.239Z,8.72
2023-03-27T09:57:20.205Z,8.99
2023-03-27T09:58:20.100Z,9.88
2023-03-27T09:59:20.068Z,9.99
2023-03-27T10:00:20.070Z,9.79
2023-03-27T10:01:20.057Z,10.34
2023-03-27T10:02:19.998Z,10.78
2023-03-27T10:03:20.026Z,10.88
2023-03-27T10:04:19.979Z,11.34
2023-03-27T10:05:19.931Z,11.68
2023-03-27T10:06:19.893Z,10.91
2023-03-27T10:07:19.874Z,10.00
2023-03-27T10:08:19.847Z,9.61
2023-03-27T10:09:19.837Z,10.01
2023-03-27T10:10:19.807Z,9.99
2023-03-27T10:11:19.776Z,9.57
2023-03-27T10:12:19.784Z,8.88
2023-03-27T10:13:19.738Z,8.63
2023-03-27T10:14:19.715Z,8.51
2023-03-27T10:15:19.697Z,8.87
2023-03-27T10:16:19.694Z,9.12
2023-03-27T10:17:19.639Z,9.15
2023-03-27T10:18:19.625Z,10.10
2023-03-27T10:19:19.593Z,10.83
2023-03-27T10:20:19.576Z,10.59
2023-03-27T10:21:19.558Z,10.04
2023-03-27T10:22:19.534Z,9.88
2023-03-27T10:23:19.515Z,9.40
2023-03-27T10:24:19.485Z,9.73
2023-03-27T10:25:19.465Z,9.89
2023-03-27T10:26:19.433Z,10.18
2023-03-27T10:27:19.423Z,10.22
2023-03-27T10:28:19.410Z,10.33
2023-03-27T10:29:19.381Z,10.44
2023-03-27T10:30:19.352Z,9.83
2023-03-27T10:31:19.359Z,9.46
2023-03-27T10:32:19.312Z,9.13
2023-03-27T10:33:19.277Z,9.25
2023-03-27T10:34:19.257Z,9.79
2023-03-27T10:35:19.264Z,10.22
2023-03-27T10:36:19.240Z,10.80
2023-03-27T10:37:19.188Z,10.52
2023-03-27T10:38:19.175Z,10.21
2023-03-27T10:39:19.171Z,9.46
2023-03-27T10:40:19.131Z,9.13
2023-03-27T10:41:28.653Z,9.34
2023-03-27T10:42:19.115Z,9.73
2023-03-27T10:43:19.062Z,10.21
2023-03-27T10:44:19.053Z,10.46
2023-03-27T10:45:19.015Z,9.94
2023-03-27T10:46:19.111Z,9.23
2023-03-27T10:47:18.980Z,8.83
2023-03-27T10:48:18.959Z,8.69
2023-03-27T10:49:18.936Z,8.62
2023-03-27T10:50:18.928Z,8.60
2023-03-27T10:51:18.907Z,8.62
2023-03-27T10:52:18.869Z,8.63
2023-03-27T10:53:18.967Z,8.63
2023-03-27T10:54:18.878Z,8.78
2023-03-27T10:55:18.816Z,8.78
2023-03-27T10:56:18.796Z,8.96
2023-03-27T10:57:18.841Z,8.91
2023-03-27T10:58:18.733Z,9.50
2023-03-27T10:59:25.484Z,9.58
2023-03-27T11:00:18.819Z,9.61
2023-03-27T11:01:18.667Z,9.64
2023-03-27T11:02:18.653Z,9.34
2023-03-27T11:03:18.638Z,9.53
2023-03-27T11:04:18.658Z,9.61
2023-03-27T11:05:18.567Z,9.32
2023-03-27T11:06:18.543Z,9.58
2023-03-27T11:07:18.519Z,9.85
2023-03-27T11:08:18.503Z,10.30
2023-03-27T11:09:18.477Z,10.09
2023-03-27T11:10:18.449Z,9.45
2023-03-27T11:11:18.434Z,9.20
2023-03-27T11:12:18.412Z,8.91
2023-03-27T11:13:18.391Z,8.87
2023-03-27T11:14:18.410Z,8.79
2023-03-27T11:15:18.349Z,8.72
2023-03-27T11:16:18.403Z,8.55
2023-03-27T11:17:18.301Z,8.44
2023-03-27T11:18:18.401Z,8.28
2023-03-27T11:19:18.302Z,8.08
2023-03-27T11:20:18.313Z,8.00
2023-03-27T11:21:18.207Z,7.82
2023-03-27T11:22:18.188Z,7.89
2023-03-27T11:23:18.159Z,7.78
2023-03-27T11:24:18.141Z,8.00
2023-03-27T11:25:18.109Z,8.81
2023-03-27T11:26:18.105Z,9.32
2023-03-27T11:27:18.069Z,9.66
2023-03-27T11:28:18.041Z,9.75
2023-03-27T11:29:18.020Z,9.46
2023-03-27T11:30:17.999Z,9.15
2023-03-27T11:31:18.001Z,9.35
2023-03-27T11:32:17.968Z,9.12
2023-03-27T11:33:17.949Z,9.18
2023-03-27T11:34:28.962Z,9.32
2023-03-27T11:35:17.892Z,9.82
2023-03-27T11:36:17.864Z,9.73
2023-03-27T11:37:17.855Z,9.78
2023-03-27T11:38:17.830Z,9.88
2023-03-27T11:39:17.815Z,9.85
2023-03-27T11:40:17.796Z,9.78
2023-03-27T11:41:17.781Z,9.86
2023-03-27T11:42:17.752Z,10.01
2023-03-27T11:43:17.740Z,10.17
2023-03-27T11:44:17.712Z,10.28
2023-03-27T11:45:17.708Z,10.19
2023-03-27T11:46:17.777Z,10.55
2023-03-27T11:47:17.676Z,10.66
2023-03-27T11:48:17.728Z,10.44
2023-03-27T11:49:17.628Z,10.26
2023-03-27T11:50:17.623Z,10.07
2023-03-27T11:51:17.598Z,10.07
2023-03-27T11:52:17.577Z,10.01
2023-03-27T11:53:17.578Z,9.97
2023-03-27T11:54:17.541Z,10.14
2023-03-27T11:55:17.531Z,9.96
2023-03-27T11:56:17.504Z,9.67
2023-03-27T11:57:17.516Z,9.96
2023-03-27T11:58:17.519Z,10.22
2023-03-27T11:59:17.473Z,10.34
2023-03-27T12:00:17.455Z,10.37
2023-03-27T12:01:17.880Z,10.32
2023-03-27T12:02:17.451Z,10.04
2023-03-27T12:03:17.479Z,10.06
2023-03-27T12:04:17.391Z,10.17
2023-03-27T12:05:17.379Z,10.28
2023-03-27T12:06:17.348Z,10.52
2023-03-27T12:07:26.276Z,10.63
2023-03-27T12:08:17.336Z,10.66
2023-03-27T12:09:17.303Z,10.77
2023-03-27T12:10:17.281Z,10.95
2023-03-27T12:11:17.279Z,10.24
2023-03-27T12:12:17.257Z,10.21
2023-03-27T12:13:17.267Z,10.15
2023-03-27T12:14:18.545Z,10.06
2023-03-27T12:15:17.234Z,10.40
2023-03-27T12:16:17.206Z,10.62
2023-03-27T12:17:17.217Z,10.60
2023-03-27T12:18:17.169Z,10.59
2023-03-27T12:19:27.430Z,10.68
2023-03-27T12:20:17.134Z,10.22
2023-03-27T12:21:17.127Z,9.96
2023-03-27T12:22:23.460Z,9.60
2023-03-27T12:23:17.094Z,9.58
2023-03-27T12:24:17.065Z,9.35
2023-03-27T12:25:17.054Z,9.12
2023-03-27T12:26:17.033Z,9.09
2023-03-27T12:27:17.042Z,9.15
2023-03-27T12:28:22.073Z,9.05
2023-03-27T12:29:23.805Z,8.79
2023-03-27T12:30:16.964Z,8.91
2023-03-27T12:31:17.033Z,8.91
2023-03-27T12:32:16.915Z,8.87
2023-03-27T12:33:16.956Z,8.68
2023-03-27T12:34:16.857Z,8.68
2023-03-27T12:35:21.354Z,8.58
2023-03-27T12:36:16.820Z,8.57
2023-03-27T12:37:16.808Z,8.54
2023-03-27T12:38:16.765Z,8.45
2023-03-27T12:39:16.772Z,8.36
2023-03-27T12:40:16.723Z,8.29
2023-03-27T12:41:16.706Z,8.12
2023-03-27T12:42:16.679Z,7.89
2023-03-27T12:43:16.655Z,7.81
2023-03-27T12:44:16.631Z,7.69
2023-03-27T12:45:16.627Z,7.69
2023-03-27T12:46:16.621Z,7.63
2023-03-27T12:47:16.565Z,7.99
2023-03-27T12:48:16.532Z,8.51
2023-03-27T12:49:16.541Z,8.90
2023-03-27T12:50:16.494Z,8.96
2023-03-27T12:51:16.467Z,9.40
2023-03-27T12:52:16.443Z,9.57
2023-03-27T12:53:16.424Z,10.01
2023-03-27T12:54:16.397Z,10.22
2023-03-27T12:55:16.385Z,10.40
2023-03-27T12:56:16.357Z,10.44
2023-03-27T12:57:16.518Z,10.34
2023-03-27T12:58:16.394Z,10.18
2023-03-27T12:59:16.296Z,10.14
2023-03-27T13:00:16.320Z,10.32
2023-03-27T13:01:16.316Z,10.28
2023-03-27T13:02:16.310Z,10.58
2023-03-27T13:03:16.284Z,10.28
2023-03-27T13:04:16.216Z,10.12
2023-03-27T13:05:26.222Z,10.53
2023-03-27T13:06:16.201Z,10.80
2023-03-27T13:07:16.154Z,11.03
2023-03-27T13:08:16.189Z,11.10
2023-03-27T13:09:16.119Z,11.25
2023-03-27T13:10:16.131Z,11.32
2023-03-27T13:11:16.085Z,11.20
2023-03-27T13:12:16.066Z,11.06
2023-03-27T13:13:16.069Z,10.77
2023-03-27T13:14:16.040Z,10.70
2023-03-27T13:15:16.018Z,10.65